createdAt,value
2023-02-11T00:00:59.322Z,88.15
2023-02-11T00:03:26.139Z,88.24
2023-02-11T00:06:05.146Z,88.18
2023-02-11T00:08:31.635Z,88.17
2023-02-11T00:10:58.521Z,88.17
2023-02-11T00:13:25.958Z,88.32
2023-02-11T00:15:52.984Z,88.34
2023-02-11T00:18:19.630Z,88.40
2023-02-11T00:20:47.160Z,88.35
2023-02-11T00:23:14.234Z,88.20
2023-02-11T00:25:44.943Z,88.31
2023-02-11T00:28:12.362Z,88.29
2023-02-11T00:30:38.767Z,88.25
2023-02-11T00:33:05.175Z,88.18
2023-02-11T00:35:31.585Z,88.29
2023-02-11T00:37:57.967Z,88.30
2023-02-11T00:40:24.614Z,88.30
2023-02-11T00:42:50.989Z,88.38
2023-02-11T00:45:17.476Z,88.36
2023-02-11T00:47:43.817Z,88.36
2023-02-11T00:50:10.240Z,88.41
2023-02-11T00:52:36.566Z,88.46
2023-02-11T00:55:02.931Z,88.44
2023-02-11T00:57:29.254Z,88.45
2023-02-11T00:59:55.578Z,88.47
2023-02-11T01:02:21.938Z,88.57
2023-02-11T01:04:48.627Z,88.48
2023-02-11T01:07:14.971Z,88.53
2023-02-11T01:09:41.298Z,88.55
2023-02-11T01:12:07.891Z,88.65
2023-02-11T01:14:34.296Z,88.48
2023-02-11T01:17:00.625Z,88.72
2023-02-11T01:19:27.002Z,88.83
2023-02-11T01:21:53.315Z,88.67
2023-02-11T01:24:19.651Z,88.71
2023-02-11T01:26:46.070Z,88.70
2023-02-11T01:29:12.412Z,88.66
2023-02-11T01:31:38.911Z,88.65
2023-02-11T01:34:05.426Z,88.73
2023-02-11T01:36:31.723Z,88.66
2023-02-11T01:38:58.185Z,88.76
2023-02-11T01:41:24.531Z,88.83
2023-02-11T01:43:50.909Z,88.94
2023-02-11T01:46:23.303Z,89.03
2023-02-11T01:48:57.314Z,88.99
2023-02-11T01:51:32.792Z,88.91
2023-02-11T01:54:19.615Z,89.00
2023-02-11T01:57:08.122Z,88.85
2023-02-11T01:59:40.753Z,88.85
2023-02-11T02:02:12.695Z,89.11
2023-02-11T02:04:47.928Z,88.99
2023-02-11T02:07:24.322Z,89.07
2023-02-11T02:09:58.579Z,88.89
2023-02-11T02:12:24.946Z,88.99
2023-02-11T02:14:51.255Z,89.06
2023-02-11T02:17:38.846Z,89.22
2023-02-11T02:20:19.147Z,89.17
2023-02-11T02:23:19.425Z,89.26
2023-02-11T02:26:15.438Z,89.30
2023-02-11T02:28:50.853Z,89.47
2023-02-11T02:31:41.274Z,89.31
2023-02-11T02:34:23.582Z,89.22
2023-02-11T02:37:10.683Z,89.27
2023-02-11T02:39:37.519Z,89.36
2023-02-11T02:42:05.334Z,89.55
2023-02-11T02:44:32.204Z,89.48
2023-02-11T02:46:58.591Z,89.59
2023-02-11T02:49:24.931Z,89.84
2023-02-11T02:51:51.278Z,89.90
2023-02-11T02:54:33.280Z,90.11
2023-02-11T02:57:24.622Z,90.18
2023-02-11T03:00:15.657Z,90.27
2023-02-11T03:02:58.982Z,90.34
2023-02-11T03:05:45.341Z,90.43
2023-02-11T03:08:27.350Z,90.44
2023-02-11T03:10:56.638Z,90.50
2023-02-11T03:13:28.889Z,90.57
2023-02-11T03:15:58.925Z,90.61
2023-02-11T03:18:28.702Z,90.58
2023-02-11T03:20:56.717Z,90.71
2023-02-11T03:23:29.296Z,91.01
2023-02-11T03:26:02.922Z,90.67
2023-02-11T03:28:47.010Z,90.92
2023-02-11T03:31:34.582Z,90.84
2023-02-11T03:34:10.074Z,91.00
2023-02-11T03:36:45.933Z,91.02
2023-02-11T03:39:16.246Z,91.11
2023-02-11T03:41:45.477Z,91.16
2023-02-11T03:44:15.578Z,91.52
2023-02-11T03:46:47.822Z,91.35
2023-02-11T03:49:17.106Z,91.41
2023-02-11T03:51:44.566Z,91.29
2023-02-11T03:54:16.560Z,91.60
2023-02-11T03:56:52.890Z,91.50
2023-02-11T03:59:19.426Z,91.60
2023-02-11T04:01:45.993Z,91.66
2023-02-11T04:04:12.374Z,91.64
2023-02-11T04:06:38.765Z,91.74
2023-02-11T04:09:05.491Z,91.71
2023-02-11T04:11:31.883Z,91.64
2023-02-11T04:13:58.365Z,91.74
2023-02-11T04:16:24.726Z,91.90
2023-02-11T04:18:51.133Z,91.93
2023-02-11T04:21:17.528Z,91.94
2023-02-11T04:23:43.876Z,91.94
2023-02-11T04:26:10.186Z,92.02
2023-02-11T04:28:36.656Z,92.10
2023-02-11T04:31:03.079Z,92.20
2023-02-11T04:33:29.511Z,92.16
2023-02-11T04:35:55.874Z,92.18
2023-02-11T04:38:24.044Z,92.24
2023-02-11T04:40:50.745Z,92.25
2023-02-11T04:43:17.176Z,92.30
2023-02-11T04:45:43.512Z,92.33
2023-02-11T04:48:09.883Z,92.26
2023-02-11T04:50:36.226Z,92.39
2023-02-11T04:53:02.534Z,92.41
2023-02-11T04:55:28.889Z,92.42
2023-02-11T04:57:55.273Z,92.32
2023-02-11T05:00:21.668Z,92.31
2023-02-11T05:02:48.007Z,92.39
2023-02-11T05:05:14.390Z,92.42
2023-02-11T05:07:41.019Z,92.37
2023-02-11T05:10:07.530Z,92.50
2023-02-11T05:12:33.909Z,92.46
2023-02-11T05:15:00.250Z,92.53
2023-02-11T05:17:26.558Z,92.48
2023-02-11T05:19:53.126Z,92.61
2023-02-11T05:22:19.710Z,92.53
2023-02-11T05:24:46.046Z,92.65
2023-02-11T05:27:12.414Z,92.58
2023-02-11T05:29:38.799Z,92.60
2023-02-11T05:32:05.229Z,92.69
2023-02-11T05:34:31.581Z,92.63
2023-02-11T05:36:57.915Z,92.72
2023-02-11T05:39:24.242Z,92.56
2023-02-11T05:41:50.595Z,92.62
2023-02-11T05:44:16.966Z,92.76
2023-02-11T05:46:43.356Z,92.64
2023-02-11T05:49:10.081Z,92.67
2023-02-11T05:51:36.392Z,92.67
2023-02-11T05:54:02.770Z,92.64
2023-02-11T05:56:29.120Z,92.58
2023-02-11T05:58:55.508Z,92.52
2023-02-11T06:01:21.800Z,92.74
2023-02-11T06:03:50.010Z,92.69
2023-02-11T06:06:16.433Z,92.61
2023-02-11T06:08:43.044Z,92.76
2023-02-11T06:11:09.819Z,92.68
2023-02-11T06:13:36.369Z,92.62
2023-02-11T06:16:03.596Z,92.70
2023-02-11T06:18:30.051Z,92.60
2023-02-11T06:20:56.513Z,92.71
2023-02-11T06:23:23.120Z,92.66
2023-02-11T06:25:50.444Z,92.63
2023-02-11T06:28:17.001Z,92.75
2023-02-11T06:30:43.388Z,92.80
2023-02-11T06:33:09.847Z,92.81
2023-02-11T06:35:38.980Z,92.86
2023-02-11T06:38:05.290Z,92.87
2023-02-11T06:40:31.703Z,92.91
2023-02-11T06:42:58.042Z,92.94
2023-02-11T06:45:24.432Z,92.79
2023-02-11T06:47:52.748Z,92.85
2023-02-11T06:50:19.196Z,92.86
2023-02-11T06:52:45.572Z,92.86
2023-02-11T06:55:11.970Z,92.85
2023-02-11T06:57:38.544Z,92.93
2023-02-11T07:00:05.974Z,92.95
2023-02-11T07:02:32.626Z,92.86
2023-02-11T07:04:58.989Z,93.00
2023-02-11T07:07:25.376Z,92.98
2023-02-11T07:09:51.993Z,93.00
2023-02-11T07:12:18.344Z,93.06
2023-02-11T07:14:44.645Z,93.03
2023-02-11T07:17:11.078Z,93.00
2023-02-11T07:19:37.383Z,93.12
2023-02-11T07:22:03.696Z,93.13
2023-02-11T07:24:30.072Z,93.18
2023-02-11T07:26:56.433Z,93.27
2023-02-11T07:29:22.751Z,93.08
2023-02-11T07:31:49.165Z,93.26
2023-02-11T07:34:15.558Z,93.18
2023-02-11T07:36:43.679Z,93.18
2023-02-11T07:39:10.149Z,93.21
2023-02-11T07:41:38.021Z,93.17
2023-02-11T07:44:04.745Z,93.19
2023-02-11T07:46:31.174Z,93.31
2023-02-11T07:48:57.751Z,93.12
2023-02-11T07:51:29.498Z,93.20
2023-02-11T07:53:58.793Z,93.13
2023-02-11T07:56:25.208Z,93.29
2023-02-11T07:58:51.539Z,93.08
2023-02-11T08:01:22.775Z,93.01
2023-02-11T08:03:49.418Z,92.92
2023-02-11T08:06:18.120Z,93.06
2023-02-11T08:08:44.718Z,92.82
2023-02-11T08:11:16.939Z,92.91
2023-02-11T08:13:44.039Z,92.80
2023-02-11T08:16:19.472Z,92.80
2023-02-11T08:18:45.816Z,92.68
2023-02-11T08:21:12.193Z,92.59
2023-02-11T08:23:40.350Z,92.59
2023-02-11T08:26:10.598Z,92.59
2023-02-11T08:28:39.673Z,92.41
2023-02-11T08:31:11.350Z,92.40
2023-02-11T08:33:37.923Z,92.35
2023-02-11T08:36:15.912Z,92.27
2023-02-11T08:38:42.991Z,92.21
2023-02-11T08:41:09.540Z,92.13
2023-02-11T08:43:37.305Z,92.06
2023-02-11T08:46:04.011Z,92.06
2023-02-11T08:48:30.473Z,92.04
2023-02-11T08:50:57.242Z,92.01
2023-02-11T08:53:24.134Z,91.81
2023-02-11T08:55:52.099Z,91.87
2023-02-11T08:58:19.233Z,91.77
2023-02-11T09:00:46.493Z,91.81
2023-02-11T09:03:14.185Z,91.75
2023-02-11T09:05:42.318Z,91.64
2023-02-11T09:08:09.208Z,91.68
2023-02-11T09:10:35.820Z,91.58
2023-02-11T09:13:02.283Z,91.40
2023-02-11T09:15:28.625Z,91.28
2023-02-11T09:17:54.944Z,91.23
2023-02-11T09:20:21.979Z,91.03
2023-02-11T09:22:48.463Z,91.19
2023-02-11T09:25:14.822Z,90.96
2023-02-11T09:27:41.150Z,90.61
2023-02-11T09:30:08.848Z,90.47
2023-02-11T09:32:35.150Z,90.29
2023-02-11T09:35:01.595Z,90.35
2023-02-11T09:37:27.928Z,90.22
2023-02-11T09:39:54.306Z,90.10
2023-02-11T09:42:45.573Z,89.89
2023-02-11T09:45:19.433Z,89.75
2023-02-11T09:47:50.672Z,89.70
2023-02-11T09:50:32.787Z,89.63
2023-02-11T09:53:04.528Z,89.61
2023-02-11T09:55:37.588Z,89.37
2023-02-11T09:58:08.009Z,89.30
2023-02-11T10:00:44.565Z,89.02
2023-02-11T10:03:39.206Z,88.97
2023-02-11T10:06:43.324Z,88.53
2023-02-11T10:09:34.514Z,88.53
2023-02-11T10:12:04.370Z,87.98
2023-02-11T10:14:49.092Z,87.91
2023-02-11T10:17:25.304Z,87.57
2023-02-11T10:20:04.751Z,87.81
2023-02-11T10:22:45.689Z,87.42
2023-02-11T10:25:18.832Z,87.11
2023-02-11T10:27:46.292Z,87.04
2023-02-11T10:30:28.268Z,86.58
2023-02-11T10:33:02.386Z,86.07
2023-02-11T10:35:28.766Z,85.81
2023-02-11T10:37:56.413Z,85.72
2023-02-11T10:40:25.843Z,85.15
2023-02-11T10:42:56.071Z,84.87
2023-02-11T10:45:35.753Z,84.62
2023-02-11T10:48:06.337Z,84.09
2023-02-11T10:50:34.926Z,84.43
2023-02-11T10:53:29.753Z,84.16
2023-02-11T10:55:57.325Z,83.86
2023-02-11T10:58:36.808Z,83.82
2023-02-11T11:01:08.031Z,84.09
2023-02-11T11:03:47.158Z,83.98
2023-02-11T11:06:13.763Z,84.13
2023-02-11T11:08:43.053Z,83.80
2023-02-11T11:11:17.734Z,83.96
2023-02-11T11:13:52.781Z,83.53
2023-02-11T11:16:27.747Z,82.98
2023-02-11T11:19:16.068Z,83.60
2023-02-11T11:21:47.922Z,83.38
2023-02-11T11:24:41.551Z,83.08
2023-02-11T11:27:17.979Z,82.88
2023-02-11T11:29:50.912Z,82.65
2023-02-11T11:32:24.083Z,82.39
2023-02-11T11:34:54.215Z,82.49
2023-02-11T11:37:23.455Z,82.33
2023-02-11T11:39:59.009Z,82.21
2023-02-11T11:42:31.692Z,82.20
2023-02-11T11:45:01.438Z,82.52
2023-02-11T11:47:47.178Z,82.07
2023-02-11T11:50:28.640Z,81.58
2023-02-11T11:53:13.598Z,82.02
2023-02-11T11:55:44.731Z,81.97
2023-02-11T11:58:16.596Z,81.11
2023-02-11T12:00:55.379Z,80.56
2023-02-11T12:03:43.710Z,80.75
2023-02-11T12:06:18.502Z,80.55
2023-02-11T12:09:25.728Z,80.83
2023-02-11T12:12:21.446Z,80.74
2023-02-11T12:15:07.122Z,80.36
2023-02-11T12:17:57.179Z,79.94
2023-02-11T12:20:39.711Z,80.48
2023-02-11T12:23:24.967Z,80.23
2023-02-11T12:26:01.010Z,80.29
2023-02-11T12:28:38.499Z,79.80
2023-02-11T12:31:30.738Z,79.44
2023-02-11T12:34:18.617Z,78.70
2023-02-11T12:37:04.623Z,78.92
2023-02-11T12:39:35.900Z,79.31
2023-02-11T12:42:35.544Z,79.21
2023-02-11T12:45:10.833Z,79.66
2023-02-11T12:47:55.678Z,78.96
2023-02-11T12:50:50.132Z,79.43
2023-02-11T12:53:41.707Z,79.48
2023-02-11T12:56:56.047Z,78.53
2023-02-11T12:59:45.535Z,78.73
2023-02-11T13:02:23.157Z,79.36
2023-02-11T13:04:53.943Z,79.05
2023-02-11T13:07:31.135Z,78.90
2023-02-11T13:10:15.439Z,78.58
2023-02-11T13:13:07.180Z,78.86
2023-02-11T13:15:33.555Z,78.32
2023-02-11T13:18:19.089Z,77.47
2023-02-11T13:20:55.516Z,77.46
2023-02-11T13:23:58.111Z,77.37
2023-02-11T13:26:52.471Z,77.39
2023-02-11T13:29:37.287Z,76.73
2023-02-11T13:32:14.803Z,76.89
2023-02-11T13:34:41.122Z,77.04
2023-02-11T13:37:21.407Z,76.85
2023-02-11T13:40:19.007Z,77.17
2023-02-11T13:42:54.610Z,77.08
2023-02-11T13:45:44.090Z,77.07
2023-02-11T13:48:30.948Z,77.08
2023-02-11T13:51:12.943Z,76.86
2023-02-11T13:53:49.080Z,76.93
2023-02-11T13:56:34.981Z,76.74
2023-02-11T13:59:04.545Z,77.64
2023-02-11T14:02:12.341Z,77.41
2023-02-11T14:05:23.364Z,77.41
2023-02-11T14:08:28.533Z,77.55
2023-02-11T14:10:56.205Z,77.07
2023-02-11T14:13:28.777Z,76.75
2023-02-11T14:16:09.994Z,76.40
2023-02-11T14:18:45.078Z,77.17
2023-02-11T14:21:23.422Z,77.55
2023-02-11T14:23:54.146Z,76.59
2023-02-11T14:26:20.410Z,77.27
2023-02-11T14:29:15.055Z,77.73
2023-02-11T14:32:00.097Z,77.80
2023-02-11T14:34:48.102Z,78.11
2023-02-11T14:37:19.128Z,78.02
2023-02-11T14:39:54.274Z,78.01
2023-02-11T14:42:26.454Z,78.08
2023-02-11T14:44:57.559Z,77.97
2023-02-11T14:47:35.679Z,78.10
2023-02-11T14:50:02.194Z,78.10
2023-02-11T14:52:31.543Z,78.24
2023-02-11T14:55:34.598Z,77.93
2023-02-11T14:58:29.434Z,78.06
2023-02-11T15:01:00.838Z,78.19
2023-02-11T15:03:28.362Z,78.10
2023-02-11T15:06:18.402Z,78.49
2023-02-11T15:09:00.872Z,77.89
2023-02-11T15:11:31.054Z,78.13
2023-02-11T15:14:01.066Z,78.73
2023-02-11T15:16:28.911Z,78.72
2023-02-11T15:19:01.238Z,78.20
2023-02-11T15:21:30.778Z,78.39
2023-02-11T15:24:02.213Z,78.35
2023-02-11T15:26:29.841Z,78.53
2023-02-11T15:28:56.182Z,78.47
2023-02-11T15:31:25.111Z,78.89
2023-02-11T15:33:52.706Z,78.76
2023-02-11T15:36:23.753Z,79.09
2023-02-11T15:39:27.486Z,78.98
2023-02-11T15:41:53.793Z,79.32
2023-02-11T15:44:29.997Z,79.29
2023-02-11T15:47:00.362Z,79.27
2023-02-11T15:49:27.026Z,79.52
2023-02-11T15:51:57.020Z,79.71
2023-02-11T15:54:27.926Z,79.59
2023-02-11T15:57:01.823Z,79.87
2023-02-11T15:59:50.519Z,80.04
2023-02-11T16:02:34.802Z,80.22
2023-02-11T16:05:09.237Z,80.45
2023-02-11T16:07:45.657Z,80.56
2023-02-11T16:10:23.005Z,80.71
2023-02-11T16:12:54.579Z,80.74
2023-02-11T16:15:41.336Z,80.94
2023-02-11T16:18:37.303Z,80.80
2023-02-11T16:21:06.949Z,80.81
2023-02-11T16:23:36.727Z,81.00
2023-02-11T16:26:27.455Z,81.02
2023-02-11T16:29:01.642Z,80.93
2023-02-11T16:31:36.088Z,81.08
2023-02-11T16:34:02.711Z,81.11
2023-02-11T16:36:29.031Z,81.48
2023-02-11T16:38:55.596Z,81.54
2023-02-11T16:41:22.186Z,81.71
2023-02-11T16:43:48.555Z,81.90
2023-02-11T16:46:15.957Z,82.07
2023-02-11T16:48:42.614Z,82.12
2023-02-11T16:51:11.712Z,82.32
2023-02-11T16:53:38.040Z,82.39
2023-02-11T16:56:04.692Z,82.38
2023-02-11T16:58:31.053Z,82.57
2023-02-11T17:00:57.918Z,82.48
2023-02-11T17:03:29.599Z,82.70
2023-02-11T17:05:56.367Z,82.77
2023-02-11T17:08:22.959Z,83.06
2023-02-11T17:10:49.740Z,83.25
2023-02-11T17:13:16.282Z,83.37
2023-02-11T17:15:42.643Z,83.55
2023-02-11T17:18:12.371Z,83.56
2023-02-11T17:20:39.121Z,83.68
2023-02-11T17:23:05.479Z,83.68
2023-02-11T17:25:32.590Z,83.68
2023-02-11T17:27:58.934Z,83.82
2023-02-11T17:30:25.359Z,83.87
2023-02-11T17:32:51.695Z,83.90
2023-02-11T17:35:18.096Z,84.04
2023-02-11T17:37:44.465Z,84.11
2023-02-11T17:40:11.534Z,84.28
2023-02-11T17:42:37.834Z,84.35
2023-02-11T17:45:04.741Z,84.36
2023-02-11T17:47:31.360Z,84.67
2023-02-11T17:49:58.059Z,84.57
2023-02-11T17:52:26.476Z,84.66
2023-02-11T17:54:52.882Z,84.76
2023-02-11T17:57:19.199Z,84.99
2023-02-11T17:59:45.782Z,84.98
2023-02-11T18:02:12.768Z,85.02
2023-02-11T18:04:40.025Z,85.08
2023-02-11T18:07:06.709Z,85.17
2023-02-11T18:09:38.025Z,85.25
2023-02-11T18:12:05.303Z,85.50
2023-02-11T18:14:31.726Z,85.32
2023-02-11T18:16:58.111Z,85.33
2023-02-11T18:19:24.503Z,85.35
2023-02-11T18:21:50.936Z,85.50
2023-02-11T18:24:17.860Z,85.52
2023-02-11T18:26:44.224Z,85.44
2023-02-11T18:29:10.588Z,85.47
2023-02-11T18:31:37.196Z,85.64
2023-02-11T18:34:07.263Z,85.53
2023-02-11T18:36:34.661Z,85.64
2023-02-11T18:39:01.003Z,85.78
2023-02-11T18:41:27.769Z,85.59
2023-02-11T18:43:54.275Z,85.65
2023-02-11T18:46:20.664Z,85.76
2023-02-11T18:48:47.044Z,85.81
2023-02-11T18:51:18.676Z,85.77
2023-02-11T18:53:45.401Z,85.82
2023-02-11T18:56:19.098Z,85.77
2023-02-11T18:58:45.428Z,85.89
2023-02-11T19:01:27.636Z,85.92
2023-02-11T19:03:55.607Z,85.90
2023-02-11T19:06:27.208Z,85.96
2023-02-11T19:09:00.213Z,85.95
2023-02-11T19:11:46.423Z,85.85
2023-02-11T19:14:14.361Z,85.78
2023-02-11T19:16:42.598Z,85.87
2023-02-11T19:19:09.567Z,85.83
2023-02-11T19:21:39.048Z,86.00
2023-02-11T19:24:10.123Z,85.94
2023-02-11T19:26:37.168Z,85.88
2023-02-11T19:29:05.564Z,86.06
2023-02-11T19:31:32.661Z,86.00
2023-02-11T19:34:00.308Z,86.07
2023-02-11T19:36:26.927Z,86.02
2023-02-11T19:38:53.909Z,86.05
2023-02-11T19:41:22.417Z,86.10
2023-02-11T19:43:52.980Z,86.13
2023-02-11T19:46:21.052Z,86.15
2023-02-11T19:48:49.127Z,85.96
2023-02-11T19:51:16.606Z,85.99
2023-02-11T19:53:44.442Z,85.94
2023-02-11T19:56:11.297Z,85.99
2023-02-11T19:58:44.282Z,86.03
2023-02-11T20:01:12.625Z,86.03
2023-02-11T20:03:42.405Z,85.80
2023-02-11T20:06:13.201Z,85.75
2023-02-11T20:08:40.455Z,85.88
2023-02-11T20:11:10.456Z,85.90
2023-02-11T20:13:37.748Z,86.00
2023-02-11T20:16:09.814Z,85.97
2023-02-11T20:18:36.927Z,86.09
2023-02-11T20:21:11.907Z,86.15
2023-02-11T20:23:40.148Z,86.04
2023-02-11T20:26:12.989Z,85.90
2023-02-11T20:28:43.538Z,86.14
2023-02-11T20:31:11.287Z,86.13
2023-02-11T20:33:38.563Z,86.15
2023-02-11T20:36:11.119Z,86.31
2023-02-11T20:38:37.530Z,86.40
2023-02-11T20:41:13.722Z,86.30
2023-02-11T20:43:48.243Z,86.17
2023-02-11T20:46:16.965Z,86.35
2023-02-11T20:48:43.566Z,86.36
2023-02-11T20:51:16.666Z,86.32
2023-02-11T20:53:47.847Z,86.34
2023-02-11T20:56:15.293Z,86.32
2023-02-11T20:58:41.729Z,86.47
2023-02-11T21:01:10.021Z,86.50
2023-02-11T21:03:36.574Z,86.44
2023-02-11T21:06:03.350Z,86.47
2023-02-11T21:08:29.713Z,86.69
2023-02-11T21:10:56.354Z,86.51
2023-02-11T21:13:22.737Z,86.67
2023-02-11T21:15:55.764Z,86.72
2023-02-11T21:18:23.803Z,86.62
2023-02-11T21:20:50.390Z,86.81
2023-02-11T21:23:17.110Z,86.69
2023-02-11T21:25:46.429Z,86.92
2023-02-11T21:28:12.944Z,86.84
2023-02-11T21:30:40.478Z,86.81
2023-02-11T21:33:07.035Z,86.84
2023-02-11T21:35:35.185Z,86.85
2023-02-11T21:38:05.176Z,86.77
2023-02-11T21:40:32.064Z,86.93
2023-02-11T21:42:58.714Z,87.11
2023-02-11T21:45:26.001Z,87.08
2023-02-11T21:47:52.530Z,87.09
2023-02-11T21:50:18.993Z,87.18
2023-02-11T21:52:45.604Z,87.30
2023-02-11T21:55:12.338Z,87.33
2023-02-11T21:57:38.678Z,87.35
2023-02-11T22:00:06.654Z,87.45
2023-02-11T22:02:33.418Z,87.52
2023-02-11T22:04:59.838Z,87.60
2023-02-11T22:07:28.003Z,87.69
2023-02-11T22:09:55.585Z,87.59
2023-02-11T22:12:23.026Z,87.80
2023-02-11T22:14:49.475Z,87.79
2023-02-11T22:17:16.131Z,87.86
2023-02-11T22:19:42.487Z,87.85
2023-02-11T22:22:09.298Z,87.77
2023-02-11T22:24:35.835Z,87.79
2023-02-11T22:27:03.160Z,87.83
2023-02-11T22:29:29.502Z,87.95
2023-02-11T22:31:55.925Z,88.08
2023-02-11T22:34:22.246Z,88.23
2023-02-11T22:36:48.572Z,88.06
2023-02-11T22:39:16.787Z,88.30
2023-02-11T22:41:45.550Z,88.13
2023-02-11T22:44:12.721Z,88.08
2023-02-11T22:46:39.534Z,88.09
2023-02-11T22:49:07.179Z,88.13
2023-02-11T22:51:34.110Z,88.23
2023-02-11T22:54:03.354Z,88.20
2023-02-11T22:56:31.814Z,88.19
2023-02-11T22:59:01.170Z,88.38
2023-02-11T23:01:29.279Z,88.06
2023-02-11T23:03:56.030Z,88.05
2023-02-11T23:06:22.918Z,88.06
2023-02-11T23:08:49.245Z,88.14
2023-02-11T23:11:19.014Z,88.12
2023-02-11T23:13:47.227Z,88.21
2023-02-11T23:16:17.770Z,88.15
2023-02-11T23:18:45.551Z,88.40
2023-02-11T23:21:18.106Z,88.38
2023-02-11T23:23:45.325Z,88.35
2023-02-11T23:26:13.659Z,88.37
2023-02-11T23:28:40.653Z,88.47
2023-02-11T23:31:18.306Z,88.48
2023-02-11T23:33:45.402Z,88.40
2023-02-11T23:36:12.206Z,88.41
2023-02-11T23:38:38.534Z,88.27
2023-02-11T23:41:05.350Z,88.13
2023-02-11T23:43:32.009Z,88.23
2023-02-11T23:45:58.974Z,88.12
2023-02-11T23:48:25.922Z,88.32
2023-02-11T23:50:52.434Z,88.19
2023-02-11T23:53:18.907Z,88.38
2023-02-11T23:55:49.099Z,88.37
2023-02-11T23:58:15.613Z,88.33
